Terminal Aerodrome Forecast
Issued by NWS Amarillo, TX

Home | Current Version | Previous Version | Text Only | Print | Product List | Glossary On
Versions: 1 2 3 4 5 6 7 8 9 10 11 12 13 14 15 16 17
000
FTUS44 KAMA 230500
TAFGUY
TAF
KGUY 230520Z 2306/2406 20006KT P6SM SCT110 BKN200
     FM230800 23006KT P6SM SCT200
     FM231600 15008KT P6SM FEW100
     FM240100 18008KT P6SM SCT200=

USA.gov is the U.S. government's official web portal to all federal, state and local government web resources and services.